Time;durP1;ratioP1;P1;durP2;ratioP2;P2;SDS_P1;SDS_P2;PMS_P1;PMS_P2;Temp;Humidity;BMP_temperature;BMP_pressure;BME280_temperature;BME280_humidity;BME280_pressure;Samples;Min_cycle;Max_cycle;Signal;HPM_P1;HPM_P2
2023/05/16 00:00:52;;;;;;;;;5.50;4.50;;;;;;;;6372050;22;45147;-76
2023/05/16 00:03:17;;;;;;;;;8.75;6.50;;;;;;;;6370359;22;45348;-76
2023/05/16 00:05:42;;;;;;;;;4.50;3.25;;;;;;;;6343039;22;47441;-76
2023/05/16 00:08:07;;;;;;;;;4.00;3.75;;;;;;;;6371612;22;45254;-76
2023/05/16 00:10:32;;;;;;;;;3.50;3.50;;;;;;;;6371944;22;45174;-77
2023/05/16 00:13:00;;;;;;;;;3.25;2.50;;;;;;;;6342822;22;46851;-77
2023/05/16 00:15:26;;;;;;;;;5.00;5.00;;;;;;;;6371191;22;45610;-77
2023/05/16 00:17:51;;;;;;;;;9.50;5.75;;;;;;;;6370115;22;45101;-76
2023/05/16 00:20:17;;;;;;;;;7.75;4.25;;;;;;;;6371577;22;45155;-76
2023/05/16 00:22:43;;;;;;;;;5.00;5.00;;;;;;;;6343046;22;46092;-77
2023/05/16 00:25:08;;;;;;;;;4.25;3.00;;;;;;;;6371087;22;46136;-76
2023/05/16 00:27:34;;;;;;;;;5.25;5.00;;;;;;;;6371722;22;45253;-76
2023/05/16 00:30:00;;;;;;;;;9.75;6.00;;;;;;;;6371152;22;45176;-76
2023/05/16 00:32:25;;;;;;;;;3.75;3.25;;;;;;;;6371708;22;45335;-76
2023/05/16 00:34:50;;;;;;;;;4.75;4.75;;;;;;;;6371112;22;46446;-76
2023/05/16 00:37:16;;;;;;;;;3.75;3.75;;;;;;;;6342681;22;45330;-76
2023/05/16 00:39:41;;;;;;;;;6.75;4.75;;;;;;;;6372724;22;45258;-77
2023/05/16 00:42:06;;;;;;;;;6.50;3.50;;;;;;;;6343823;22;45752;-77
2023/05/16 00:44:31;;;;;;;;;4.75;4.00;;;;;;;;6343826;22;48149;-77
2023/05/16 00:46:59;;;;;;;;;8.00;5.00;;;;;;;;6372944;22;45205;-77
2023/05/16 00:49:24;;;;;;;;;5.50;4.50;;;;;;;;6373133;22;45237;-78
2023/05/16 00:51:50;;;;;;;;;4.75;4.75;;;;;;;;6373191;22;45429;-77
2023/05/16 00:54:16;;;;;;;;;5.50;3.00;;;;;;;;6372950;22;46458;-77
2023/05/16 00:56:41;;;;;;;;;5.25;3.50;;;;;;;;6373109;22;45179;-77
2023/05/16 00:59:06;;;;;;;;;4.25;4.00;;;;;;;;6343680;22;45257;-77
2023/05/16 01:01:32;;;;;;;;;9.00;5.00;;;;;;;;6373209;22;45087;-77
2023/05/16 01:03:59;;;;;;;;;9.75;2.75;;;;;;;;6372590;22;45485;-77
2023/05/16 01:06:24;;;;;;;;;4.00;4.00;;;;;;;;6373068;22;45198;-76
2023/05/16 01:08:49;;;;;;;;;4.75;2.00;;;;;;;;6343376;22;45180;-77
2023/05/16 01:11:30;;;;;;;;;4.00;3.00;;;;;;;;6373038;22;45627;-76
2023/05/16 01:14:01;;;;;;;;;5.75;3.75;;;;;;;;6343614;22;48172;-77
2023/05/16 01:16:35;;;;;;;;;7.25;4.00;;;;;;;;6344161;22;45253;-77
2023/05/16 01:19:06;;;;;;;;;6.25;4.00;;;;;;;;6344198;22;45228;-76
2023/05/16 01:21:34;;;;;;;;;4.00;2.25;;;;;;;;6373554;22;45190;-76
2023/05/16 01:24:02;;;;;;;;;4.00;3.25;;;;;;;;6344594;22;47124;-77
2023/05/16 01:26:28;;;;;;;;;4.25;3.00;;;;;;;;6373848;22;45338;-77
2023/05/16 01:28:54;;;;;;;;;4.00;4.00;;;;;;;;6373465;22;45301;-78
2023/05/16 01:31:20;;;;;;;;;4.00;3.00;;;;;;;;6344858;22;46168;-77
2023/05/16 01:33:45;;;;;;;;;9.75;4.00;;;;;;;;6372935;22;46134;-77
2023/05/16 01:36:11;;;;;;;;;7.75;4.00;;;;;;;;6344658;22;45233;-77
2023/05/16 01:38:40;;;;;;;;;7.50;3.00;;;;;;;;6344254;22;45208;-77
2023/05/16 01:41:20;;;;;;;;;4.00;3.00;;;;;;;;6372539;22;45542;-77
2023/05/16 01:43:47;;;;;;;;;7.25;4.00;;;;;;;;6343066;22;47200;-77
2023/05/16 01:46:23;;;;;;;;;3.75;3.75;;;;;;;;6372646;22;45204;-77
2023/05/16 01:48:53;;;;;;;;;4.50;2.25;;;;;;;;6372387;22;45167;-77
2023/05/16 01:51:23;;;;;;;;;7.25;5.00;;;;;;;;6372399;22;45369;-76
2023/05/16 01:53:49;;;;;;;;;7.75;4.00;;;;;;;;6343596;22;47093;-77
2023/05/16 01:56:15;;;;;;;;;4.00;4.00;;;;;;;;6372367;22;45227;-77
2023/05/16 01:58:40;;;;;;;;;5.25;3.50;;;;;;;;6372547;22;45178;-77
2023/05/16 02:01:06;;;;;;;;;3.75;3.00;;;;;;;;6372472;22;45369;-77
2023/05/16 02:03:31;;;;;;;;;5.50;4.25;;;;;;;;6343477;22;48259;-78
2023/05/16 02:05:57;;;;;;;;;8.00;3.75;;;;;;;;6372744;22;45234;-77
2023/05/16 02:08:23;;;;;;;;;3.25;3.25;;;;;;;;6343723;22;45267;-77
2023/05/16 02:10:48;;;;;;;;;4.50;4.00;;;;;;;;6343913;22;45830;-77
2023/05/16 02:13:13;;;;;;;;;5.75;2.75;;;;;;;;6372204;22;45586;-77
2023/05/16 02:15:38;;;;;;;;;8.25;2.00;;;;;;;;6372644;22;45288;-78
2023/05/16 02:18:04;;;;;;;;;7.25;3.00;;;;;;;;6372506;22;45156;-77
2023/05/16 02:20:29;;;;;;;;;6.00;4.00;;;;;;;;6343810;22;45958;-77
2023/05/16 02:22:54;;;;;;;;;10.50;4.75;;;;;;;;6371891;22;46015;-77
2023/05/16 02:25:20;;;;;;;;;6.25;4.25;;;;;;;;6371908;22;45251;-77
2023/05/16 02:27:45;;;;;;;;;5.00;5.00;;;;;;;;6372772;22;45259;-77
2023/05/16 02:30:13;;;;;;;;;8.00;4.00;;;;;;;;6371727;22;45465;-77
2023/05/16 02:32:38;;;;;;;;;6.50;3.50;;;;;;;;6343817;22;45565;-77
2023/05/16 02:35:04;;;;;;;;;4.00;2.00;;;;;;;;6343686;22;45299;-77
2023/05/16 02:37:29;;;;;;;;;3.00;3.00;;;;;;;;6343999;22;45405;-77
2023/05/16 02:39:55;;;;;;;;;9.75;3.50;;;;;;;;6372021;22;45124;-77
2023/05/16 02:42:20;;;;;;;;;7.25;4.00;;;;;;;;6372712;22;45378;-77
2023/05/16 02:44:45;;;;;;;;;4.00;3.00;;;;;;;;6372152;22;45139;-77
2023/05/16 02:47:10;;;;;;;;;6.25;3.00;;;;;;;;6372807;22;45276;-77
2023/05/16 02:49:35;;;;;;;;;3.75;3.50;;;;;;;;6343410;22;47429;-77
2023/05/16 02:52:01;;;;;;;;;7.50;2.75;;;;;;;;6372633;22;45341;-77
2023/05/16 02:54:26;;;;;;;;;3.25;2.50;;;;;;;;6343278;22;45404;-76
2023/05/16 02:56:51;;;;;;;;;3.50;3.50;;;;;;;;6344314;22;45483;-77
2023/05/16 02:59:16;;;;;;;;;2.00;2.00;;;;;;;;6343049;22;46042;-77
2023/05/16 03:01:42;;;;;;;;;3.50;2.00;;;;;;;;6371656;22;46435;-77
2023/05/16 03:04:07;;;;;;;;;3.00;2.75;;;;;;;;6372181;22;45278;-77
2023/05/16 03:06:32;;;;;;;;;4.00;4.00;;;;;;;;6372685;22;45254;-78
2023/05/16 03:08:57;;;;;;;;;5.00;3.00;;;;;;;;6371957;22;45246;-77
2023/05/16 03:11:24;;;;;;;;;4.25;3.00;;;;;;;;6343693;22;46987;-77
2023/05/16 03:13:49;;;;;;;;;3.00;3.00;;;;;;;;6371596;22;45252;-77
2023/05/16 03:16:15;;;;;;;;;9.25;4.00;;;;;;;;6372301;22;45176;-78
2023/05/16 03:18:40;;;;;;;;;7.25;5.00;;;;;;;;6343500;22;45431;-77
2023/05/16 03:21:05;;;;;;;;;2.00;2.00;;;;;;;;6344430;22;46700;-76
2023/05/16 03:23:30;;;;;;;;;8.00;3.25;;;;;;;;6342822;22;45381;-78
2023/05/16 03:25:56;;;;;;;;;4.50;3.00;;;;;;;;6344016;22;45232;-77
2023/05/16 03:28:21;;;;;;;;;10.75;4.75;;;;;;;;6372022;22;45093;-77
2023/05/16 03:30:46;;;;;;;;;3.75;3.00;;;;;;;;6342928;22;47105;-78
2023/05/16 03:33:11;;;;;;;;;3.00;3.00;;;;;;;;6371893;22;45138;-77
2023/05/16 03:35:37;;;;;;;;;4.00;4.00;;;;;;;;6372554;22;45256;-77
2023/05/16 03:38:02;;;;;;;;;7.25;4.25;;;;;;;;6371805;22;45173;-77
2023/05/16 03:40:27;;;;;;;;;4.75;4.00;;;;;;;;6371823;22;45202;-78
2023/05/16 03:42:53;;;;;;;;;5.00;3.25;;;;;;;;6372060;22;45211;-78
2023/05/16 03:45:18;;;;;;;;;9.25;4.50;;;;;;;;6372008;22;45205;-78
2023/05/16 03:47:43;;;;;;;;;4.75;3.00;;;;;;;;6342737;22;45769;-78
2023/05/16 03:50:09;;;;;;;;;7.00;4.00;;;;;;;;6342921;22;46982;-77
2023/05/16 03:52:34;;;;;;;;;4.25;4.25;;;;;;;;6372037;22;45221;-77
2023/05/16 03:55:01;;;;;;;;;5.50;4.25;;;;;;;;6371925;22;45164;-78
2023/05/16 03:57:26;;;;;;;;;7.00;5.00;;;;;;;;6371852;22;45251;-77
2023/05/16 03:59:51;;;;;;;;;4.00;3.75;;;;;;;;6342782;22;46774;-77
2023/05/16 04:02:16;;;;;;;;;3.75;3.75;;;;;;;;6371637;22;45359;-77
2023/05/16 04:04:42;;;;;;;;;4.75;4.00;;;;;;;;6342648;22;45267;-77
2023/05/16 04:07:07;;;;;;;;;6.25;4.00;;;;;;;;6371851;22;45278;-77
2023/05/16 04:09:32;;;;;;;;;6.50;4.00;;;;;;;;6371400;22;45420;-77
2023/05/16 04:12:00;;;;;;;;;7.00;3.00;;;;;;;;6343158;22;45216;-77
2023/05/16 04:14:26;;;;;;;;;5.25;3.00;;;;;;;;6372627;22;45238;-77
2023/05/16 04:16:51;;;;;;;;;7.50;5.25;;;;;;;;6372484;22;45237;-77
2023/05/16 04:19:16;;;;;;;;;3.75;3.75;;;;;;;;6373135;22;45602;-79
2023/05/16 04:21:41;;;;;;;;;4.00;4.00;;;;;;;;6344364;22;45113;-76
2023/05/16 04:24:07;;;;;;;;;10.25;5.50;;;;;;;;6372997;22;45201;-76
2023/05/16 04:26:32;;;;;;;;;6.50;4.50;;;;;;;;6344576;22;45912;-76
2023/05/16 04:28:57;;;;;;;;;8.25;4.50;;;;;;;;6372922;22;46093;-76
2023/05/16 04:31:24;;;;;;;;;6.00;4.25;;;;;;;;6344667;22;45160;-75
2023/05/16 04:33:49;;;;;;;;;4.00;4.00;;;;;;;;6373154;22;45411;-76
2023/05/16 04:36:14;;;;;;;;;4.00;4.00;;;;;;;;6343791;22;45601;-77
2023/05/16 04:38:40;;;;;;;;;3.75;3.75;;;;;;;;6343575;22;47721;-75
2023/05/16 04:41:06;;;;;;;;;6.00;4.25;;;;;;;;6373353;22;45234;-76
2023/05/16 04:43:31;;;;;;;;;6.75;3.00;;;;;;;;6372949;22;45459;-78
2023/05/16 04:45:57;;;;;;;;;5.25;5.25;;;;;;;;6372857;22;45354;-76
2023/05/16 04:48:23;;;;;;;;;8.25;6.00;;;;;;;;6372904;22;45326;-80
2023/05/16 04:50:48;;;;;;;;;3.00;2.00;;;;;;;;6373073;22;45176;-78
2023/05/16 04:53:13;;;;;;;;;7.25;5.25;;;;;;;;6373079;22;45227;-78
2023/05/16 04:55:39;;;;;;;;;7.00;7.00;;;;;;;;6373301;22;45453;-78
2023/05/16 04:58:04;;;;;;;;;7.00;5.25;;;;;;;;6372726;22;45798;-78
2023/05/16 05:00:29;;;;;;;;;4.00;2.00;;;;;;;;6372828;22;45237;-78
2023/05/16 05:02:54;;;;;;;;;4.25;3.00;;;;;;;;6344011;22;45184;-79
2023/05/16 05:05:20;;;;;;;;;6.75;4.00;;;;;;;;6372207;22;45424;-78
2023/05/16 05:07:45;;;;;;;;;4.00;1.00;;;;;;;;6369477;22;45396;-79
2023/05/16 05:10:11;;;;;;;;;5.00;5.00;;;;;;;;6343486;22;45362;-77
2023/05/16 05:12:36;;;;;;;;;5.50;4.50;;;;;;;;6344528;22;45416;-77
2023/05/16 05:15:01;;;;;;;;;6.25;3.50;;;;;;;;6344360;22;47361;-77
2023/05/16 05:17:27;;;;;;;;;4.50;4.00;;;;;;;;6372612;22;46142;-78
2023/05/16 05:19:52;;;;;;;;;8.50;5.00;;;;;;;;6373816;22;45222;-79
2023/05/16 05:22:17;;;;;;;;;6.75;4.00;;;;;;;;6344723;22;44649;-81
2023/05/16 05:24:42;;;;;;;;;4.00;3.00;;;;;;;;6373553;22;45261;-81
2023/05/16 05:27:07;;;;;;;;;7.75;4.50;;;;;;;;6372994;22;45331;-81
2023/05/16 05:29:33;;;;;;;;;4.75;4.75;;;;;;;;6372772;22;45155;-80
2023/05/16 05:31:58;;;;;;;;;9.50;4.75;;;;;;;;6373296;22;45227;-84
2023/05/16 05:34:23;;;;;;;;;4.75;3.50;;;;;;;;6373012;22;44801;-81
2023/05/16 05:36:48;;;;;;;;;3.50;3.50;;;;;;;;6373291;22;45079;-80
2023/05/16 05:39:14;;;;;;;;;7.25;5.25;;;;;;;;6372935;22;45143;-83
2023/05/16 05:41:39;;;;;;;;;3.50;3.50;;;;;;;;6373134;22;45068;-83
2023/05/16 05:44:05;;;;;;;;;4.00;4.00;;;;;;;;6372493;22;44711;-84
2023/05/16 05:46:30;;;;;;;;;8.00;3.00;;;;;;;;6372507;22;46040;-83
2023/05/16 05:48:55;;;;;;;;;8.00;4.75;;;;;;;;6372801;22;45011;-82
2023/05/16 05:51:20;;;;;;;;;4.00;3.00;;;;;;;;6373228;22;45165;-82
2023/05/16 05:53:46;;;;;;;;;5.50;4.25;;;;;;;;6372854;22;45553;-84
2023/05/16 05:56:11;;;;;;;;;4.75;4.00;;;;;;;;6373059;22;46601;-82
2023/05/16 05:58:37;;;;;;;;;4.00;3.25;;;;;;;;6372577;22;45285;-84
2023/05/16 06:01:03;;;;;;;;;4.50;4.25;;;;;;;;6372668;22;45226;-79
2023/05/16 06:03:28;;;;;;;;;4.00;2.25;;;;;;;;6343776;22;47430;-80
2023/05/16 06:05:53;;;;;;;;;4.25;3.50;;;;;;;;6372934;22;45283;-79
2023/05/16 06:08:18;;;;;;;;;5.00;3.00;;;;;;;;6372742;22;45375;-79
2023/05/16 06:10:43;;;;;;;;;3.50;3.50;;;;;;;;6343743;22;45396;-81
2023/05/16 06:13:09;;;;;;;;;8.00;4.00;;;;;;;;6372331;22;45189;-81
2023/05/16 06:15:34;;;;;;;;;8.25;4.00;;;;;;;;6341983;22;46202;-83
2023/05/16 06:17:59;;;;;;;;;4.00;4.00;;;;;;;;6371767;22;45177;-83
2023/05/16 06:20:25;;;;;;;;;2.25;1.00;;;;;;;;6372312;22;45502;-81
2023/05/16 06:22:50;;;;;;;;;4.00;3.50;;;;;;;;6372539;22;45248;-79
2023/05/16 06:25:15;;;;;;;;;5.25;4.00;;;;;;;;6372541;22;45210;-80
2023/05/16 06:27:40;;;;;;;;;3.75;3.00;;;;;;;;6372935;22;45312;-81
2023/05/16 06:30:06;;;;;;;;;5.00;4.00;;;;;;;;6372074;22;45238;-79
2023/05/16 06:32:31;;;;;;;;;4.50;3.75;;;;;;;;6372851;22;45163;-82
2023/05/16 06:34:56;;;;;;;;;4.00;2.00;;;;;;;;6372172;22;45351;-82
2023/05/16 06:37:22;;;;;;;;;2.75;2.75;;;;;;;;6372200;22;45143;-85
2023/05/16 06:39:47;;;;;;;;;5.25;2.50;;;;;;;;6372530;22;44696;-82
2023/05/16 06:42:13;;;;;;;;;4.75;3.50;;;;;;;;6342401;22;45717;-81
2023/05/16 06:44:38;;;;;;;;;6.75;3.00;;;;;;;;6372353;22;45266;-81
2023/05/16 06:47:03;;;;;;;;;2.50;2.50;;;;;;;;6343707;22;45227;-79
2023/05/16 06:49:28;;;;;;;;;2.25;2.00;;;;;;;;6343961;22;45235;-79
2023/05/16 06:51:54;;;;;;;;;4.25;2.00;;;;;;;;6372851;22;45134;-82
2023/05/16 06:54:19;;;;;;;;;4.50;3.75;;;;;;;;6343376;22;46849;-82
2023/05/16 06:56:44;;;;;;;;;2.00;2.00;;;;;;;;6372688;22;45231;-82
2023/05/16 06:59:10;;;;;;;;;6.00;3.00;;;;;;;;6343608;22;45177;-82
2023/05/16 07:01:35;;;;;;;;;4.25;2.00;;;;;;;;6372661;22;45871;-79
2023/05/16 07:04:00;;;;;;;;;6.00;2.00;;;;;;;;6344000;22;47949;-84
2023/05/16 07:06:25;;;;;;;;;4.00;2.50;;;;;;;;6372820;22;45151;-83
2023/05/16 07:08:50;;;;;;;;;2.75;2.00;;;;;;;;6371097;22;45164;-84
2023/05/16 07:11:17;;;;;;;;;2.00;2.00;;;;;;;;6371846;22;45415;-83
2023/05/16 07:13:42;;;;;;;;;6.67;2.00;;;;;;;;6371925;22;45469;-87
2023/05/16 07:16:07;;;;;;;;;2.00;1.00;;;;;;;;6371978;22;45379;-83
2023/05/16 07:18:32;;;;;;;;;2.33;1.33;;;;;;;;6372644;22;45261;-83
2023/05/16 07:20:58;;;;;;;;;3.67;2.00;;;;;;;;6373479;22;45265;-84
2023/05/16 07:23:23;;;;;;;;;4.00;1.67;;;;;;;;6374348;22;45478;-84
2023/05/16 07:25:48;;;;;;;;;5.00;2.00;;;;;;;;6372455;22;45292;-85
2023/05/16 07:28:14;;;;;;;;;1.00;1.00;;;;;;;;6343112;22;44857;-85
2023/05/16 07:30:39;;;;;;;;;4.33;1.00;;;;;;;;6372281;22;45256;-85
2023/05/16 07:33:04;;;;;;;;;3.67;2.00;;;;;;;;6372379;22;46321;-86
2023/05/16 07:35:30;;;;;;;;;4.33;1.00;;;;;;;;6344097;22;45184;-85
2023/05/16 07:37:55;;;;;;;;;1.00;1.00;;;;;;;;6372304;22;45203;-83
2023/05/16 07:40:24;;;;;;;;;5.33;2.00;;;;;;;;6371774;22;45320;-80
2023/05/16 07:42:49;;;;;;;;;4.00;1.00;;;;;;;;6372388;22;45603;-82
2023/05/16 07:45:15;;;;;;;;;6.67;1.67;;;;;;;;6342765;22;45415;-84
2023/05/16 07:47:40;;;;;;;;;2.00;0.67;;;;;;;;6372538;22;45182;-84
2023/05/16 07:50:06;;;;;;;;;2.67;1.00;;;;;;;;6344302;22;45696;-82
2023/05/16 07:52:31;;;;;;;;;2.33;2.00;;;;;;;;6373137;22;45533;-82
2023/05/16 07:54:57;;;;;;;;;1.00;1.00;;;;;;;;6373232;22;45261;-86
2023/05/16 07:57:22;;;;;;;;;2.67;1.33;;;;;;;;6344969;22;45217;-86
2023/05/16 07:59:48;;;;;;;;;3.00;2.00;;;;;;;;6372554;22;45357;-84
2023/05/16 08:02:13;;;;;;;;;2.33;2.00;;;;;;;;6372982;22;45285;-85
2023/05/16 08:04:38;;;;;;;;;4.00;1.00;;;;;;;;6373009;22;45359;-81
2023/05/16 08:07:04;;;;;;;;;1.67;1.33;;;;;;;;6373482;22;45232;-83
2023/05/16 08:09:30;;;;;;;;;3.67;2.00;;;;;;;;6372634;22;45395;-83
2023/05/16 08:11:55;;;;;;;;;1.67;1.00;;;;;;;;6372864;22;46227;-79
2023/05/16 08:14:20;;;;;;;;;1.33;1.33;;;;;;;;6343677;22;45190;-79
2023/05/16 08:16:45;;;;;;;;;2.00;2.00;;;;;;;;6372841;22;45334;-79
2023/05/16 08:19:10;;;;;;;;;1.00;1.00;;;;;;;;6343216;22;46034;-81
2023/05/16 08:21:36;;;;;;;;;3.00;2.00;;;;;;;;6343937;22;47937;-83
2023/05/16 08:24:04;;;;;;;;;3.00;1.67;;;;;;;;6373115;22;45264;-81
2023/05/16 08:26:29;;;;;;;;;1.00;1.00;;;;;;;;6344482;22;45236;-84
2023/05/16 08:28:54;;;;;;;;;4.00;3.00;;;;;;;;6372967;22;45285;-87
2023/05/16 08:31:19;;;;;;;;;1.00;1.00;;;;;;;;6373172;22;45514;-77
2023/05/16 08:33:45;;;;;;;;;2.67;2.00;;;;;;;;6373098;22;45207;-77
2023/05/16 08:36:10;;;;;;;;;2.00;1.00;;;;;;;;6373196;22;45168;-78
2023/05/16 08:38:35;;;;;;;;;2.00;2.00;;;;;;;;6372205;22;45397;-78
2023/05/16 08:41:01;;;;;;;;;1.33;1.00;;;;;;;;6344398;22;46505;-77
2023/05/16 08:43:26;;;;;;;;;1.00;1.00;;;;;;;;6372432;22;45093;-77
2023/05/16 08:45:51;;;;;;;;;1.00;1.00;;;;;;;;6373024;22;45186;-78
2023/05/16 08:48:18;;;;;;;;;1.00;1.00;;;;;;;;6372842;22;45450;-77
2023/05/16 08:50:44;;;;;;;;;7.00;1.00;;;;;;;;6372118;22;45508;-77
2023/05/16 08:53:10;;;;;;;;;3.00;1.00;;;;;;;;6372460;22;45164;-77
2023/05/16 08:55:36;;;;;;;;;1.33;1.00;;;;;;;;6373141;22;45245;-77
2023/05/16 08:58:02;;;;;;;;;1.67;1.00;;;;;;;;6372265;22;45216;-79
2023/05/16 09:00:27;;;;;;;;;3.33;1.33;;;;;;;;6343764;22;46918;-78
2023/05/16 09:02:53;;;;;;;;;3.33;1.00;;;;;;;;6372886;22;45162;-78
2023/05/16 09:05:18;;;;;;;;;1.00;1.00;;;;;;;;6373101;22;45160;-76
2023/05/16 09:07:44;;;;;;;;;0.00;0.00;;;;;;;;6343964;22;45739;-77
2023/05/16 09:10:10;;;;;;;;;0.33;0.00;;;;;;;;6372487;22;45557;-77
2023/05/16 09:12:35;;;;;;;;;3.33;2.00;;;;;;;;6372943;22;45217;-77
2023/05/16 09:15:01;;;;;;;;;1.33;0.67;;;;;;;;6372599;22;45229;-77
2023/05/16 09:17:33;;;;;;;;;1.00;0.00;;;;;;;;6372680;22;45368;-77
2023/05/16 09:19:58;;;;;;;;;0.00;0.00;;;;;;;;6372655;22;45329;-77
2023/05/16 09:22:23;;;;;;;;;1.00;0.67;;;;;;;;6372449;22;45151;-78
2023/05/16 09:24:48;;;;;;;;;0.00;0.00;;;;;;;;6373010;22;45249;-77
2023/05/16 09:27:14;;;;;;;;;0.00;0.00;;;;;;;;6373063;22;45288;-77
2023/05/16 09:29:40;;;;;;;;;1.00;0.33;;;;;;;;6373089;22;45224;-77
2023/05/16 09:32:09;;;;;;;;;1.33;1.33;;;;;;;;6373064;22;45253;-76
2023/05/16 09:34:37;;;;;;;;;1.67;1.67;;;;;;;;6372689;22;45275;-77
2023/05/16 09:37:02;;;;;;;;;0.33;0.33;;;;;;;;6372463;22;45638;-77
2023/05/16 09:39:27;;;;;;;;;1.00;0.67;;;;;;;;6343828;22;46953;-77
2023/05/16 09:41:53;;;;;;;;;0.00;0.00;;;;;;;;6344429;22;45195;-77
2023/05/16 09:44:18;;;;;;;;;1.00;1.00;;;;;;;;6372927;22;45926;-77
2023/05/16 09:46:43;;;;;;;;;0.00;0.00;;;;;;;;6372791;22;45149;-77
2023/05/16 09:49:11;;;;;;;;;4.00;0.67;;;;;;;;6372430;22;45375;-77
2023/05/16 09:51:36;;;;;;;;;0.67;0.67;;;;;;;;6344292;22;45140;-76
2023/05/16 09:54:06;;;;;;;;;1.67;0.00;;;;;;;;6344080;22;45171;-77
2023/05/16 09:56:31;;;;;;;;;0.67;0.33;;;;;;;;6372792;22;45217;-78
2023/05/16 09:58:56;;;;;;;;;0.67;0.33;;;;;;;;6372541;22;45355;-77
2023/05/16 10:01:22;;;;;;;;;0.67;0.67;;;;;;;;6343805;22;45390;-77
2023/05/16 10:03:47;;;;;;;;;1.00;1.00;;;;;;;;6372746;22;45145;-76
2023/05/16 10:06:13;;;;;;;;;2.00;0.00;;;;;;;;6344350;22;46086;-85
2023/05/16 10:08:41;;;;;;;;;1.00;1.00;;;;;;;;6372740;22;45215;-87
2023/05/16 10:11:06;;;;;;;;;1.67;1.00;;;;;;;;6371661;22;45207;-83
2023/05/16 10:13:33;;;;;;;;;2.33;1.00;;;;;;;;6372920;22;45174;-87
2023/05/16 10:15:59;;;;;;;;;1.00;1.00;;;;;;;;6372992;22;45405;-86
2023/05/16 10:18:34;;;;;;;;;0.33;0.33;;;;;;;;6344194;22;45598;-86
2023/05/16 10:21:03;;;;;;;;;3.00;3.00;;;;;;;;6373463;22;45178;-88
2023/05/16 10:23:29;;;;;;;;;2.00;1.00;;;;;;;;6373545;22;44604;-90
2023/05/16 10:25:56;;;;;;;;;1.67;1.33;;;;;;;;6345064;22;45545;-88
2023/05/16 10:28:22;;;;;;;;;1.67;1.67;;;;;;;;6373875;22;46489;-84
2023/05/16 10:30:48;;;;;;;;;3.00;2.00;;;;;;;;6373365;22;45327;-88
2023/05/16 10:33:14;;;;;;;;;6.33;6.00;;;;;;;;6372923;22;45144;-86
2023/05/16 10:35:40;;;;;;;;;3.00;1.00;;;;;;;;6372904;22;45679;-85
2023/05/16 10:38:06;;;;;;;;;3.33;2.00;;;;;;;;6372651;22;45348;-84
2023/05/16 10:40:32;;;;;;;;;1.33;1.33;;;;;;;;6373501;22;45279;-85
2023/05/16 10:42:59;;;;;;;;;2.00;1.00;;;;;;;;6343741;22;45420;-83
2023/05/16 10:45:24;;;;;;;;;2.33;1.33;;;;;;;;6373138;22;45204;-85
2023/05/16 10:47:50;;;;;;;;;1.00;1.00;;;;;;;;6372733;22;46147;-87
2023/05/16 10:50:29;;;;;;;;;1.00;1.00;;;;;;;;6343205;22;45279;-84
2023/05/16 10:52:54;;;;;;;;;1.67;0.67;;;;;;;;6372871;22;45223;-84
2023/05/16 10:55:19;;;;;;;;;3.00;1.33;;;;;;;;6372417;22;45437;-85
2023/05/16 10:57:46;;;;;;;;;0.33;0.33;;;;;;;;6372570;22;45827;-88
2023/05/16 11:00:20;;;;;;;;;3.50;0.50;;;;;;;;6372612;22;45294;-88
2023/05/16 11:02:45;;;;;;;;;0.00;0.00;;;;;;;;6372814;22;45269;-88
2023/05/16 11:05:16;;;;;;;;;3.67;0.00;;;;;;;;6372430;22;45502;-90
2023/05/16 11:07:41;;;;;;;;;0.67;0.67;;;;;;;;6372877;22;45544;-84
2023/05/16 11:10:08;;;;;;;;;1.00;1.00;;;;;;;;6372166;22;45333;-85
2023/05/16 11:12:37;;;;;;;;;2.00;1.00;;;;;;;;6344451;22;45290;-84
2023/05/16 11:15:16;;;;;;;;;1.75;1.00;;;;;;;;6372047;22;45401;-85
2023/05/16 11:17:41;;;;;;;;;1.00;1.00;;;;;;;;6372028;22;46058;-82
2023/05/16 11:20:09;;;;;;;;;0.00;0.00;;;;;;;;6343511;22;45759;-81
2023/05/16 11:22:40;;;;;;;;;1.00;1.00;;;;;;;;6372126;22;45289;-87
2023/05/16 11:25:06;;;;;;;;;0.75;0.75;;;;;;;;6371973;22;45181;-84
2023/05/16 11:27:35;;;;;;;;;0.75;0.75;;;;;;;;6372219;22;46457;-87
2023/05/16 11:30:04;;;;;;;;;0.75;0.50;;;;;;;;6345155;22;45310;-87
2023/05/16 11:32:29;;;;;;;;;1.00;1.00;;;;;;;;6373386;22;45191;-83
2023/05/16 11:34:54;;;;;;;;;0.75;0.00;;;;;;;;6372179;22;45380;-85
2023/05/16 11:37:20;;;;;;;;;2.00;1.00;;;;;;;;6344228;22;46009;-84
2023/05/16 11:39:45;;;;;;;;;1.00;0.00;;;;;;;;6372076;22;45197;-85
2023/05/16 11:42:12;;;;;;;;;0.75;0.75;;;;;;;;6372674;22;45102;-86
2023/05/16 11:44:37;;;;;;;;;1.50;0.75;;;;;;;;6371884;22;45238;-85
2023/05/16 11:47:02;;;;;;;;;1.75;0.75;;;;;;;;6372707;22;45398;-89
2023/05/16 11:49:28;;;;;;;;;0.00;0.00;;;;;;;;6343948;22;45311;-85
2023/05/16 11:51:56;;;;;;;;;2.00;0.00;;;;;;;;6372938;22;45285;-85
2023/05/16 11:54:21;;;;;;;;;0.00;0.00;;;;;;;;6344384;22;45362;-89
2023/05/16 11:56:47;;;;;;;;;1.00;1.00;;;;;;;;6344076;22;46779;-87
2023/05/16 11:59:12;;;;;;;;;3.00;1.00;;;;;;;;6371913;22;45199;-86
2023/05/16 12:01:38;;;;;;;;;1.00;0.00;;;;;;;;6372810;22;45238;-82
2023/05/16 12:04:10;;;;;;;;;0.50;0.25;;;;;;;;6372364;22;45480;-85
2023/05/16 12:06:36;;;;;;;;;0.00;0.00;;;;;;;;6372783;22;45585;-85
2023/05/16 12:09:08;;;;;;;;;2.00;0.00;;;;;;;;6372009;22;45278;-84
2023/05/16 12:11:34;;;;;;;;;1.50;0.75;;;;;;;;6342004;22;45227;-85
2023/05/16 12:13:59;;;;;;;;;1.00;1.00;;;;;;;;6371663;22;45305;-83
2023/05/16 12:16:25;;;;;;;;;0.50;0.00;;;;;;;;6371462;22;45467;-84
2023/05/16 12:18:50;;;;;;;;;1.75;1.00;;;;;;;;6342876;22;45274;-88
2023/05/16 12:21:16;;;;;;;;;0.00;0.00;;;;;;;;6372166;22;45210;-89
2023/05/16 12:23:41;;;;;;;;;2.25;0.75;;;;;;;;6341795;22;45591;-87
2023/05/16 12:26:07;;;;;;;;;0.00;0.00;;;;;;;;6342393;22;47106;-86
2023/05/16 12:28:33;;;;;;;;;0.00;0.00;;;;;;;;6371295;22;45253;-85
2023/05/16 12:30:58;;;;;;;;;1.00;1.00;;;;;;;;6371948;22;45424;-90
2023/05/16 12:33:24;;;;;;;;;0.50;0.50;;;;;;;;6372640;22;45215;-85
2023/05/16 12:35:51;;;;;;;;;0.00;0.00;;;;;;;;6373507;22;45434;-87
2023/05/16 12:38:18;;;;;;;;;3.25;0.00;;;;;;;;6345020;22;45184;-87
2023/05/16 12:40:43;;;;;;;;;2.50;0.00;;;;;;;;6373189;22;45263;-81
2023/05/16 12:43:15;;;;;;;;;1.00;1.00;;;;;;;;6372727;22;45498;-77
2023/05/16 12:45:42;;;;;;;;;0.00;0.00;;;;;;;;6372934;22;46541;-77
2023/05/16 12:48:11;;;;;;;;;1.75;0.75;;;;;;;;6373024;22;45333;-74
2023/05/16 12:50:37;;;;;;;;;0.75;0.75;;;;;;;;6372631;22;45183;-75
2023/05/16 12:53:03;;;;;;;;;0.50;0.50;;;;;;;;6373055;22;45231;-78
2023/05/16 12:55:28;;;;;;;;;2.00;1.00;;;;;;;;6372122;22;46453;-78
2023/05/16 12:57:54;;;;;;;;;2.00;2.00;;;;;;;;6372938;22;45337;-77
2023/05/16 13:00:19;;;;;;;;;1.25;1.00;;;;;;;;6372715;22;45241;-76
2023/05/16 13:02:45;;;;;;;;;1.00;1.00;;;;;;;;6372714;22;45376;-77
2023/05/16 13:05:11;;;;;;;;;3.00;1.25;;;;;;;;6343224;22;47182;-77
2023/05/16 13:07:38;;;;;;;;;1.00;1.00;;;;;;;;6373141;22;45178;-77
2023/05/16 13:10:03;;;;;;;;;1.00;1.00;;;;;;;;6343664;22;45286;-77
2023/05/16 13:12:28;;;;;;;;;0.00;0.00;;;;;;;;6373155;22;45329;-75
2023/05/16 13:14:54;;;;;;;;;1.25;0.50;;;;;;;;6372361;22;46638;-75
2023/05/16 13:17:19;;;;;;;;;0.25;0.25;;;;;;;;6344101;22;45195;-76
2023/05/16 13:19:44;;;;;;;;;0.75;0.75;;;;;;;;6373044;22;45263;-77
2023/05/16 13:22:10;;;;;;;;;1.25;1.25;;;;;;;;6372789;22;45296;-77
2023/05/16 13:24:35;;;;;;;;;1.00;1.00;;;;;;;;6343535;22;48071;-75
2023/05/16 13:27:00;;;;;;;;;3.00;1.00;;;;;;;;6372883;22;45219;-74
2023/05/16 13:29:25;;;;;;;;;1.75;1.00;;;;;;;;6372656;22;45298;-76
2023/05/16 13:31:51;;;;;;;;;1.00;1.00;;;;;;;;6372921;22;45391;-76
2023/05/16 13:34:16;;;;;;;;;0.00;0.00;;;;;;;;6372666;22;45498;-77
2023/05/16 13:36:41;;;;;;;;;0.25;0.00;;;;;;;;6373139;22;45193;-76
2023/05/16 13:39:06;;;;;;;;;0.00;0.00;;;;;;;;6373051;22;45279;-75
2023/05/16 13:41:36;;;;;;;;;2.00;1.00;;;;;;;;6373016;22;45310;-75
2023/05/16 13:44:01;;;;;;;;;0.75;0.75;;;;;;;;6343662;22;46457;-75
2023/05/16 13:46:26;;;;;;;;;2.33;1.33;;;;;;;;6372723;22;45155;-76
2023/05/16 13:48:51;;;;;;;;;3.67;1.33;;;;;;;;6372872;22;45354;-76
2023/05/16 13:51:17;;;;;;;;;2.33;1.00;;;;;;;;6372234;22;45511;-76
2023/05/16 13:53:42;;;;;;;;;0.00;0.00;;;;;;;;6372472;22;45125;-75
2023/05/16 13:56:07;;;;;;;;;2.00;1.00;;;;;;;;6372701;22;45086;-76
2023/05/16 13:58:32;;;;;;;;;2.00;1.00;;;;;;;;6343420;22;45615;-75
2023/05/16 14:00:57;;;;;;;;;1.00;1.00;;;;;;;;6372581;22;45584;-78
2023/05/16 14:03:23;;;;;;;;;0.67;0.67;;;;;;;;6343781;22;47314;-76
2023/05/16 14:05:48;;;;;;;;;1.33;1.33;;;;;;;;6372621;22;45325;-76
2023/05/16 14:08:13;;;;;;;;;1.00;1.00;;;;;;;;6343725;22;45205;-76
2023/05/16 14:10:38;;;;;;;;;1.00;0.33;;;;;;;;6372750;22;45441;-75
2023/05/16 14:13:04;;;;;;;;;0.33;0.33;;;;;;;;6372169;22;45308;-75
2023/05/16 14:15:29;;;;;;;;;1.67;1.67;;;;;;;;6372719;22;45254;-76
2023/05/16 14:17:54;;;;;;;;;0.67;0.67;;;;;;;;6372045;22;45297;-75
2023/05/16 14:20:19;;;;;;;;;2.00;1.33;;;;;;;;6372055;22;45475;-75
2023/05/16 14:22:44;;;;;;;;;1.00;1.00;;;;;;;;6343072;22;46855;-74
2023/05/16 14:25:10;;;;;;;;;0.00;0.00;;;;;;;;6372098;22;45227;-75
2023/05/16 14:27:35;;;;;;;;;1.00;1.00;;;;;;;;6372312;22;45297;-74
2023/05/16 14:30:00;;;;;;;;;0.67;0.67;;;;;;;;6371926;22;45236;-74
2023/05/16 14:32:26;;;;;;;;;0.67;0.67;;;;;;;;6342399;22;46845;-74
2023/05/16 14:34:51;;;;;;;;;1.33;0.67;;;;;;;;6372223;22;44711;-75